Blue Hill Meteorological Observatory

42° 12' 44"N, 71° 06' 53"W, Elevation 635 ft.
Eastern Time

Hourly observations for the last 72 hours

Date Time Temperature (°F) Humi-
dity

(%)
Wind
(mph)
Pressure Rain (in) Sun
(W/m2)
ET
(in)
Air Dew 6 Hour 1 Hr 3 Hr 6 Hr Day
Alt
(in)
Sea
Level

(mb)
Max Min
21 05:00 45.2 37.8 75 N 12 G 18 29.63 1003.4 0.00 0 0.004
21 04:00 45.6 40.1 81 N 12 G 18 29.59 1002.2 0.00 0 0.003
21 03:00 46.1 41.8 85 NNW 11 G 17 29.57 1001.4 0.00 0 0.002
21 02:00 47.3 41.8 81 NW 11 G 16 29.55 1000.8 0.00 0 0.001
21 01:00 47.2 42.3 51.0 45.1 83 NW 11 G 19 29.58 1001.6 0.00 0 0.000
21 00:00 46.7 42.1 84 W 12 G 16 29.59 1002.1 0.00 0 0.089
20 23:00 45.5 41.9 87 W 11 G 14 29.60 1002.4 0.00 0 0.088
20 22:00 45.6 42.0 87 W 11 G 14 29.61 1002.7 0.00 0 0.087
20 21:00 47.0 42.4 84 W 11 G 13 29.60 1002.4 0.00 0 0.086
20 20:00 48.6 43.0 81 W 10 G 13 29.59 1002.1 0.00 0 0.084
20 19:00 51.0 43.7 60.4 51.0 76 WSW 11 G 15 29.60 1002.3 0.00 0 0.082
20 18:00 52.4 44.4 74 WSW 8 G 13 29.59 1002.2 0.00 0 0.080
20 17:00 54.6 46.1 73 WNW 11 G 15 29.58 1001.8 0.00 0 0.077
20 16:00 59.0 48.1 67 W 13 G 21 29.58 1001.6 0.00 105 0.071
20 15:00 58.8 47.9 67 W 10 G 20 29.58 1001.7 0.00 362 0.065
20 14:00 59.3 48.0 66 W 14 G 21 29.59 1002.1 0.00 142 0.058
20 13:00 60.3 49.7 61.5 53.7 68 W 12 G 22 29.61 1002.7 0.00 137 0.047
20 12:00 60.4 51.0 71 W 12 G 26 29.63 1003.5 0.00 700 0.035
20 11:00 56.6 49.8 78 W 21 G 31 29.65 1004.2 0.00 250 0.030
20 10:00 56.3 50.5 81 WSW 21 G 31 29.67 1004.9 0.00 113 0.024
20 09:00 53.7 50.2 88 SW 18 G 28 29.69 1005.5 0.00 88 0.022
20 08:00 54.2 49.2 83 SW 19 G 28 29.70 1005.7 0.00 35 0.019
20 07:00 53.9 47.9 54.7 51.2 80 SSW 21 G 30 29.70 1005.7 0.00 16 0.016
20 06:00 54.4 47.3 77 SSW 20 G 34 29.68 1005.2 0.00 0 0.013
20 05:00 54.2 47.5 78 SW 19 G 27 29.73 1006.6 0.00 0 0.010
20 04:00 54.6 46.8 75 SSW 16 G 30 29.74 1007.1 0.00 0 0.007
20 03:00 54.4 47.3 77 SSW 20 G 30 29.77 1008.1 0.00 0 0.004
20 02:00 52.4 47.7 84 SSW 19 G 28 29.81 1009.3 0.00 0 0.002
20 01:00 51.2 46.2 51.3 49.7 83 SSW 17 G 24 29.84 1010.5 0.00 0 0.000
20 00:00 50.7 44.1 78 SW 15 G 23 29.88 1011.7 0.00 0 0.146
19 23:00 50.5 42.9 75 SW 19 G 26 29.89 1012.1 0.00 0 0.143
19 22:00 49.8 41.9 74 SW 20 G 29 29.93 1013.5 0.00 0 0.140
19 21:00 50.2 41.2 71 SSW 18 G 28 29.94 1014.1 0.00 0 0.136
19 20:00 50.6 41.2 70 SSW 20 G 29 29.97 1014.8 0.00 0 0.133
19 19:00 50.8 41.0 59.3 50.8 69 SW 18 G 28 29.98 1015.4 0.00 0 0.129
19 18:00 51.9 38.9 61 SW 17 G 28 30.02 1016.6 0.00 0 0.125
19 17:00 53.5 41.2 63 SSW 16 G 22 30.01 1016.3 0.00 0 0.120
19 16:00 57.4 38.4 49 SW 18 G 26 30.02 1016.5 0.00 132 0.109
19 15:00 59.1 36.0 42 SW 13 G 25 30.04 1017.4 0.00 281 0.094
19 14:00 58.4 37.2 45 WSW 17 G 25 30.05 1017.7 0.00 422 0.078
19 13:00 56.8 38.4 56.8 34.1 50 WSW 14 G 27 30.09 1019.1 0.00 541 0.061
19 12:00 53.8 37.1 53 WSW 16 G 24 30.13 1020.4 0.00 585 0.046
19 11:00 51.3 37.0 58 WSW 13 G 24 30.18 1022.0 0.00 578 0.032
19 10:00 48.1 34.9 60 WSW 16 G 21 30.20 1022.6 0.00 522 0.021
19 09:00 44.0 32.6 64 WSW 14 G 20 30.23 1023.7 0.00 417 0.013
19 08:00 38.5 29.9 71 WSW 13 G 19 30.25 1024.3 0.00 267 0.009
19 07:00 34.1 27.7 34.1 31.5 77 WSW 13 G 18 30.26 1024.9 0.00 113 0.007
19 06:00 32.2 26.4 79 SW 12 G 16 30.25 1024.6 0.00 0 0.006
19 05:00 32.3 26.2 78 WSW 11 G 15 30.26 1024.9 0.00 0 0.005
19 04:00 31.8 26.0 79 W 12 G 16 30.27 1025.1 0.00 0 0.004
19 03:00 32.5 26.1 77 W 12 G 17 30.27 1025.1 0.00 0 0.003
19 02:00 32.3 25.6 76 WNW 13 G 15 30.26 1024.8 0.00 0 0.002
19 01:00 32.8 25.1 36.9 32.7 73 W 14 G 17 30.27 1025.3 0.00 0 0.000
19 00:00 33.0 23.9 69 W 14 G 16 30.29 1025.8 0.00 0 0.143
18 23:00 33.9 23.7 66 W 15 G 19 30.29 1025.8 0.00 0 0.141
18 22:00 34.4 23.1 63 W 17 G 23 30.29 1025.8 0.00 0 0.138
18 21:00 34.5 23.6 64 W 17 G 20 30.29 1025.8 0.00 0 0.135
18 20:00 35.5 23.0 60 W 13 G 16 30.29 1025.8 0.00 0 0.132
18 19:00 36.3 21.7 44.9 36.3 55 W 13 G 15 30.28 1025.4 0.00 0 0.129
18 18:00 37.2 22.9 56 WNW 15 G 21 30.26 1024.7 0.00 0 0.126
18 17:00 39.9 20.8 46 WNW 13 G 21 30.25 1024.3 0.00 0 0.121
18 16:00 43.8 22.2 42 NW 12 G 18 30.21 1023.2 0.00 127 0.113
18 15:00 44.3 20.9 39 WNW 15 G 26 30.21 1023.1 0.00 290 0.101
18 14:00 44.3 20.3 38 W 18 G 31 30.21 1023.1 0.00 441 0.087
18 13:00 43.9 22.3 44.5 34.0 42 WNW 15 G 27 30.20 1022.8 0.00 545 0.072
18 12:00 43.6 21.4 41 WNW 17 G 27 30.20 1022.7 0.00 610 0.057
18 11:00 42.7 24.4 48 WNW 15 G 29 30.21 1023.2 0.00 605 0.043
18 10:00 40.9 22.7 48 NW 13 G 22 30.22 1023.3 0.00 554 0.031
18 09:00 38.9 22.3 51 NW 24 G 33 30.21 1023.2 0.00 441 0.022
18 08:00 36.4 23.0 58 NW 21 G 33 30.20 1022.8 0.00 290 0.016
18 07:00 34.0 22.7 39.3 32.9 63 NW 16 G 23 30.17 1021.8 0.00 125 0.013
18 06:00 33.4 23.3 66 NW 18 G 31 30.13 1020.4 0.00 0 0.010

Data generated by WxSolution Version 1.9.1.5, Build 2018.05.20.